Time;durP1;ratioP1;P1;durP2;ratioP2;P2;SDS_P1;SDS_P2;PMS_P1;PMS_P2;Temp;Humidity;BMP_temperature;BMP_pressure;BME280_temperature;BME280_humidity;BME280_pressure;Samples;Min_cycle;Max_cycle;Signal;HPM_P1;HPM_P2
2023/08/14 00:01:03;;;;;;;2.13;2.03;;;23.30;99.90;;;23.85;83.97;100559.28;4982466;28;20642;-65
2023/08/14 00:03:31;;;;;;;2.50;2.10;;;23.30;99.90;;;23.85;83.76;100566.47;4983042;28;20650;-67
2023/08/14 00:05:58;;;;;;;3.90;2.50;;;23.30;99.90;;;23.86;84.11;100565.44;4988444;28;20666;-65
2023/08/14 00:08:25;;;;;;;2.77;1.97;;;23.30;99.90;;;23.85;83.76;100561.13;4984479;28;21262;-66
2023/08/14 00:10:52;;;;;;;2.37;2.27;;;23.30;99.90;;;23.83;84.04;100563.97;4989005;28;20662;-67
2023/08/14 00:13:20;;;;;;;3.17;2.33;;;23.30;99.90;;;23.83;83.30;100565.81;4988209;28;20677;-65
2023/08/14 00:15:48;;;;;;;2.10;2.03;;;23.30;99.90;;;23.83;83.14;100571.16;4988483;28;21210;-65
2023/08/14 00:18:16;;;;;;;3.10;2.50;;;23.20;99.90;;;23.77;82.07;100571.94;4986833;28;20654;-66
2023/08/14 00:20:46;;;;;;;2.30;2.20;;;23.20;99.90;;;23.75;82.22;100569.47;4984412;28;20678;-65
2023/08/14 00:23:13;;;;;;;2.63;2.43;;;23.20;99.90;;;23.74;82.63;100573.19;5005149;28;20634;-65
2023/08/14 00:25:40;;;;;;;2.73;2.53;;;23.20;99.90;;;23.72;81.85;100577.06;4986670;28;20701;-65
2023/08/14 00:28:06;;;;;;;2.57;2.23;;;23.20;99.90;;;23.68;82.30;100578.47;4990351;28;20658;-66
2023/08/14 00:30:34;;;;;;;2.40;2.20;;;23.10;99.90;;;23.64;82.89;100590.50;4990012;28;20638;-65
2023/08/14 00:33:01;;;;;;;2.80;2.60;;;23.10;99.90;;;23.62;83.05;100590.72;4987922;28;21265;-65
2023/08/14 00:35:28;;;;;;;3.17;2.80;;;23.10;99.90;;;23.63;83.45;100588.88;4989204;28;21082;-66
2023/08/14 00:37:55;;;;;;;3.07;2.47;;;23.10;99.90;;;23.63;83.56;100583.56;4987597;28;20642;-65
2023/08/14 00:40:22;;;;;;;2.73;2.53;;;23.10;99.90;;;23.60;83.85;100579.44;4991125;28;20685;-66
2023/08/14 00:42:49;;;;;;;2.93;2.13;;;23.10;99.90;;;23.58;83.57;100576.13;4989731;28;20642;-67
2023/08/14 00:45:16;;;;;;;3.33;2.67;;;23.00;99.90;;;23.57;83.34;100579.00;4985868;28;20678;-65
2023/08/14 00:47:45;;;;;;;1.97;1.87;;;23.00;99.90;;;23.58;83.74;100580.63;4988090;28;20645;-65
2023/08/14 00:50:13;;;;;;;2.30;2.17;;;23.00;99.90;;;23.55;84.27;100575.72;4984251;28;20638;-66
2023/08/14 00:52:44;;;;;;;2.20;1.93;;;23.00;99.90;;;23.55;84.03;100568.53;4982211;28;20705;-63
2023/08/14 00:55:17;;;;;;;2.10;2.00;;;23.00;99.90;;;23.55;82.98;100565.88;4986539;28;20673;-65
2023/08/14 00:57:44;;;;;;;2.17;2.07;;;23.00;99.90;;;23.54;83.27;100561.56;4982492;28;20741;-62
2023/08/14 01:00:12;;;;;;;3.27;2.27;;;23.00;99.90;;;23.53;82.90;100561.78;5005794;28;20614;-64
2023/08/14 01:02:42;;;;;;;4.30;2.80;;;23.00;99.90;;;23.53;83.41;100561.78;4984996;28;20721;-66
2023/08/14 01:05:09;;;;;;;2.10;2.00;;;23.00;99.90;;;23.50;82.89;100555.00;4985391;28;20634;-65
2023/08/14 01:07:37;;;;;;;2.10;2.00;;;23.00;99.90;;;23.51;83.08;100555.81;4988965;28;20634;-65
2023/08/14 01:10:07;;;;;;;2.33;2.23;;;23.00;99.90;;;23.52;83.14;100565.44;4987027;28;20725;-66
2023/08/14 01:13:07;;;;;;;2.77;2.63;;;23.00;99.90;;;23.52;83.06;100558.28;4990766;28;20725;-66
2023/08/14 01:15:50;;;;;;;2.40;2.27;;;23.00;99.90;;;23.51;82.83;100561.94;4987753;28;20657;-65
2023/08/14 01:18:19;;;;;;;2.53;2.33;;;23.00;99.90;;;23.50;83.09;100562.16;4989778;28;20737;-65
2023/08/14 01:21:11;;;;;;;2.37;2.27;;;22.90;99.90;;;23.50;82.51;100575.47;4988024;28;20642;-66
2023/08/14 01:24:12;;;;;;;2.37;2.27;;;22.90;99.90;;;23.49;82.40;100579.97;4987909;28;20696;-68
2023/08/14 01:26:40;;;;;;;2.47;2.27;;;22.90;99.90;;;23.49;82.64;100573.84;4980219;28;20680;-65
2023/08/14 01:29:06;;;;;;;2.50;2.40;;;22.90;99.90;;;23.47;82.62;100565.22;5002099;28;20689;-65
2023/08/14 01:31:33;;;;;;;2.17;2.07;;;23.00;99.90;;;23.45;83.23;100567.22;4988462;28;20629;-67
2023/08/14 01:34:00;;;;;;;2.63;2.30;;;22.90;99.90;;;23.46;83.18;100564.41;4989621;28;21092;-65
2023/08/14 01:36:41;;;;;;;1.90;1.80;;;22.90;99.90;;;23.44;82.52;100555.78;4989671;28;20720;-65
2023/08/14 01:39:16;;;;;;;2.13;2.03;;;22.90;99.90;;;23.44;83.20;100545.13;4985722;28;21314;-64
2023/08/14 01:42:01;;;;;;;3.37;2.57;;;22.90;99.90;;;23.43;82.69;100545.31;4995039;28;20696;-66
2023/08/14 01:44:31;;;;;;;2.40;1.83;;;22.90;99.90;;;23.43;82.83;100543.47;4985782;28;20738;-65
2023/08/14 01:47:00;;;;;;;2.53;2.30;;;22.90;99.90;;;23.45;82.92;100551.25;4987736;28;20703;-65
2023/08/14 01:49:30;;;;;;;2.20;2.03;;;22.90;99.90;;;23.45;82.74;100554.75;4986401;28;20744;-66
2023/08/14 01:51:58;;;;;;;2.20;2.10;;;22.90;99.90;;;23.46;82.87;100555.56;4988609;28;20626;-65
2023/08/14 01:54:25;;;;;;;2.37;2.17;;;22.90;99.90;;;23.47;83.06;100555.38;4988762;28;20622;-65
2023/08/14 01:56:52;;;;;;;2.27;2.17;;;22.90;99.90;;;23.44;82.94;100550.47;4989249;28;20726;-65
2023/08/14 01:59:29;;;;;;;3.53;2.47;;;22.90;99.90;;;23.46;82.91;100540.44;4993600;28;20650;-62
2023/08/14 02:01:56;;;;;;;2.13;2.03;;;22.90;99.90;;;23.47;82.58;100536.72;4987056;28;20641;-65
2023/08/14 02:04:24;;;;;;;2.03;1.97;;;22.90;99.90;;;23.48;82.87;100545.56;4990255;28;20645;-64
2023/08/14 02:06:50;;;;;;;2.33;2.13;;;22.90;99.90;;;23.48;84.68;100567.69;4991249;28;21529;-66
2023/08/14 02:09:17;;;;;;;1.33;1.33;;;22.90;99.90;;;23.43;85.36;100569.28;4991068;28;20716;-65
2023/08/14 02:11:44;;;;;;;2.50;2.23;;;22.90;99.90;;;23.36;87.31;100568.41;4992146;28;20638;-63
2023/08/14 02:14:11;;;;;;;1.90;1.80;;;22.90;99.90;;;23.30;87.90;100558.53;4990515;28;20648;-66
2023/08/14 02:16:38;;;;;;;1.20;1.17;;;22.80;99.90;;;23.24;89.12;100561.94;4991165;28;20665;-68
2023/08/14 02:19:05;;;;;;;1.70;1.60;;;22.70;99.90;;;23.17;89.90;100549.41;4991514;28;20724;-65
2023/08/14 02:21:32;;;;;;;2.73;1.57;;;22.70;99.90;;;23.11;90.98;100550.19;4991623;28;20669;-64
2023/08/14 02:23:59;;;;;;;1.90;1.80;;;22.60;99.90;;;23.02;90.48;100540.69;4986259;28;20773;-66
2023/08/14 02:26:26;;;;;;;3.43;2.10;;;22.50;99.90;;;22.91;90.86;100527.09;4991773;28;20757;-66
2023/08/14 02:28:53;;;;;;;2.83;2.50;;;22.50;99.90;;;22.83;91.22;100525.38;4990331;28;20756;-66
2023/08/14 02:31:20;;;;;;;2.20;2.10;;;22.40;99.90;;;22.79;91.35;100515.31;4991827;28;20665;-65
2023/08/14 02:33:47;;;;;;;2.53;2.20;;;22.30;99.90;;;22.75;91.62;100517.53;4990192;28;20658;-65
2023/08/14 02:36:14;;;;;;;2.23;2.13;;;22.30;99.90;;;22.76;91.43;100513.06;4991345;28;20653;-66
2023/08/14 02:38:41;;;;;;;1.90;1.80;;;22.30;99.90;;;22.71;90.71;100512.78;4989883;28;21128;-65
2023/08/14 02:41:08;;;;;;;1.53;1.30;;;22.20;99.90;;;22.63;90.70;100505.78;4992075;28;21191;-64
2023/08/14 02:43:35;;;;;;;1.97;1.87;;;22.20;99.90;;;22.59;91.70;100496.53;4985673;28;20641;-65
2023/08/14 02:46:02;;;;;;;2.10;2.00;;;22.10;99.90;;;22.59;92.37;100501.03;4985343;28;20669;-65
2023/08/14 02:48:29;;;;;;;2.03;1.83;;;22.10;99.90;;;22.57;92.59;100503.88;4977384;28;21306;-65
2023/08/14 02:50:56;;;;;;;3.60;2.30;;;22.10;99.90;;;22.60;91.75;100506.16;4976363;28;20749;-63
2023/08/14 02:53:23;;;;;;;1.90;1.80;;;22.10;99.90;;;22.61;91.27;100501.66;4979574;28;21089;-65
2023/08/14 02:55:53;;;;;;;2.53;2.33;;;22.10;99.90;;;22.62;91.29;100490.81;4977819;28;20626;-64
2023/08/14 02:58:20;;;;;;;3.87;1.70;;;22.10;99.90;;;22.61;91.38;100497.19;4983559;28;20658;-66
2023/08/14 03:00:48;;;;;;;3.07;2.20;;;22.10;99.90;;;22.59;90.88;100493.88;4991624;28;20665;-67
2023/08/14 03:03:15;;;;;;;2.20;2.00;;;22.10;99.90;;;22.60;91.49;100486.72;4992591;28;21187;-62
2023/08/14 03:05:44;;;;;;;2.10;2.00;;;22.10;99.90;;;22.60;90.81;100479.56;4986334;28;20741;-65
2023/08/14 03:08:11;;;;;;;1.80;1.70;;;22.10;99.90;;;22.60;90.89;100479.56;4979678;28;20662;-65
2023/08/14 03:10:38;;;;;;;1.77;1.67;;;22.10;99.90;;;22.56;90.88;100475.59;4987079;28;20716;-66
2023/08/14 03:13:05;;;;;;;2.03;1.93;;;22.10;99.90;;;22.56;90.91;100472.13;4987271;28;20634;-65
2023/08/14 03:15:32;;;;;;;2.17;1.97;;;22.10;99.90;;;22.56;90.73;100474.78;4986984;28;20676;-65
2023/08/14 03:17:59;;;;;;;1.80;1.70;;;22.10;99.90;;;22.56;90.58;100475.59;4991935;28;20633;-65
2023/08/14 03:20:26;;;;;;;1.70;1.60;;;22.10;99.90;;;22.53;90.27;100483.97;4988154;28;20634;-63
2023/08/14 03:22:52;;;;;;;1.83;1.73;;;22.10;99.90;;;22.55;90.16;100481.13;4986686;28;21261;-65
2023/08/14 03:25:20;;;;;;;1.90;1.90;;;22.00;99.90;;;22.52;90.32;100474.34;4989660;28;20693;-66
2023/08/14 03:27:47;;;;;;;2.53;1.80;;;22.10;99.90;;;22.51;90.70;100483.31;4989950;28;20674;-65
2023/08/14 03:30:14;;;;;;;1.70;1.60;;;22.10;99.90;;;22.50;91.26;100464.91;4988153;28;20729;-65
2023/08/14 03:32:41;;;;;;;2.50;1.57;;;22.00;99.90;;;22.45;91.47;100470.81;4989928;28;20794;-65
2023/08/14 03:35:08;;;;;;;1.60;1.50;;;22.00;99.90;;;22.44;91.53;100476.31;4988444;28;20681;-66
2023/08/14 03:37:35;;;;;;;1.73;1.53;;;22.00;99.90;;;22.41;91.91;100472.19;4987832;28;20690;-65
2023/08/14 03:40:02;;;;;;;1.80;1.70;;;22.00;99.90;;;22.41;92.06;100480.16;4989034;28;20716;-65
2023/08/14 03:42:29;;;;;;;5.90;1.50;;;21.90;99.90;;;22.38;91.97;100472.59;4989931;28;20728;-65
2023/08/14 03:44:56;;;;;;;1.60;1.50;;;21.90;99.90;;;22.38;91.85;100467.28;4988790;28;20642;-65
2023/08/14 03:47:23;;;;;;;3.03;1.80;;;21.90;99.90;;;22.36;92.61;100469.28;4991113;28;20761;-64
2023/08/14 03:49:50;;;;;;;2.30;1.80;;;21.90;99.90;;;22.34;93.21;100468.66;4988788;28;20693;-65
2023/08/14 03:52:17;;;;;;;1.90;1.77;;;21.90;99.90;;;22.31;93.85;100461.06;4991243;28;20626;-65
2023/08/14 03:54:45;;;;;;;2.50;2.20;;;21.90;99.90;;;22.29;94.22;100471.06;4990131;28;20638;-66
2023/08/14 03:57:11;;;;;;;1.90;1.80;;;21.80;99.90;;;22.29;94.35;100479.03;4991186;28;20697;-66
2023/08/14 03:59:38;;;;;;;2.20;1.60;;;21.80;99.90;;;22.29;94.49;100468.41;4980972;28;20705;-65
2023/08/14 04:02:05;;;;;;;1.50;1.40;;;21.80;99.90;;;22.27;94.16;100478.41;4981456;28;20670;-66
2023/08/14 04:04:32;;;;;;;1.60;1.30;;;21.80;99.90;;;22.24;94.66;100478.78;4986091;28;20646;-66
2023/08/14 04:06:59;;;;;;;1.77;1.63;;;21.80;99.90;;;22.21;94.94;100484.47;4988600;28;21266;-65
2023/08/14 04:09:27;;;;;;;2.03;1.83;;;21.70;99.90;;;22.17;94.86;100483.19;4985941;28;21293;-65
2023/08/14 04:11:54;;;;;;;1.80;1.70;;;21.70;99.90;;;22.15;95.36;100493.19;4984267;28;20642;-63
2023/08/14 04:14:20;;;;;;;1.90;1.80;;;21.70;99.90;;;22.08;95.35;100497.63;4986278;28;20685;-65
2023/08/14 04:16:47;;;;;;;1.80;1.70;;;21.60;99.90;;;22.05;96.01;100492.66;4987144;28;20674;-66
2023/08/14 04:19:17;;;;;;;1.53;1.50;;;21.60;99.90;;;21.99;96.57;100502.22;4986386;28;21246;-64
2023/08/14 04:21:44;;;;;;;1.40;1.40;;;21.50;99.90;;;21.94;96.64;100493.97;4989453;28;20668;-65
2023/08/14 04:24:11;;;;;;;1.70;1.63;;;21.50;99.90;;;21.94;96.99;100496.63;4988314;28;20618;-65
2023/08/14 04:26:39;;;;;;;2.17;2.03;;;21.50;99.90;;;21.94;97.84;100495.81;4988810;28;20749;-67
2023/08/14 04:29:08;;;;;;;1.30;1.30;;;21.50;99.90;;;21.95;97.87;100502.78;4987761;28;20705;-66
2023/08/14 04:31:36;;;;;;;1.73;1.63;;;21.50;99.90;;;21.94;98.11;100503.78;4990111;28;20678;-66
2023/08/14 04:34:05;;;;;;;1.90;1.80;;;21.50;99.90;;;21.98;98.35;100507.72;4985296;28;20721;-64
2023/08/14 04:36:33;;;;;;;2.17;2.07;;;21.50;99.90;;;21.94;98.25;100504.59;4989029;28;20633;-65
2023/08/14 04:39:03;;;;;;;2.10;2.00;;;21.50;99.90;;;21.93;98.60;100515.44;4987454;28;21458;-67
2023/08/14 04:41:30;;;;;;;1.50;1.40;;;21.50;99.90;;;21.93;99.01;100521.56;4982664;28;20635;-64
2023/08/14 04:43:57;;;;;;;2.63;1.80;;;21.50;99.90;;;21.94;99.19;100517.06;4977627;28;20713;-65
2023/08/14 04:46:32;;;;;;;2.27;2.00;;;21.50;99.90;;;21.97;99.59;100519.34;4979686;28;20742;-65
2023/08/14 04:49:19;;;;;;;1.47;1.40;;;21.50;99.90;;;21.96;99.23;100525.66;4977056;28;20701;-64
2023/08/14 04:51:46;;;;;;;2.17;1.80;;;21.50;99.90;;;21.93;98.88;100526.88;4987797;28;20662;-66
2023/08/14 04:54:13;;;;;;;2.30;2.10;;;21.50;99.90;;;21.92;99.22;100516.44;4989233;28;20622;-64
2023/08/14 04:56:40;;;;;;;4.93;2.03;;;21.50;99.90;;;21.93;98.90;100518.09;4982891;28;21092;-68
2023/08/14 04:59:07;;;;;;;1.20;1.20;;;21.50;99.90;;;21.93;99.05;100513.59;4989565;28;20656;-65
2023/08/14 05:01:34;;;;;;;1.63;1.53;;;21.50;99.90;;;21.95;98.76;100518.72;4987989;28;20736;-65
2023/08/14 05:04:01;;;;;;;2.57;2.37;;;21.50;99.90;;;22.03;98.64;100530.06;4990577;28;20638;-65
2023/08/14 05:06:28;;;;;;;2.47;2.33;;;21.60;99.90;;;22.10;98.65;100524.84;4987762;28;20650;-66
2023/08/14 05:08:55;;;;;;;2.20;2.10;;;21.60;99.90;;;22.18;98.20;100509.59;4990065;28;20746;-65
2023/08/14 05:11:22;;;;;;;2.20;2.10;;;21.70;99.90;;;22.28;98.43;100504.78;4988232;28;20741;-65
2023/08/14 05:13:48;;;;;;;2.43;2.30;;;21.70;99.90;;;22.36;98.15;100496.69;4980833;28;20652;-67
2023/08/14 05:16:15;;;;;;;7.40;2.13;;;21.80;99.90;;;22.47;97.77;100503.34;4980722;28;20633;-65
2023/08/14 05:18:42;;;;;;;4.33;1.93;;;21.90;99.90;;;22.60;97.09;100498.19;4979965;28;20685;-66
2023/08/14 05:21:09;;;;;;;2.50;2.27;;;22.10;99.90;;;22.74;95.78;100489.31;4978754;28;20643;-65
2023/08/14 05:23:36;;;;;;;1.80;1.70;;;22.20;99.90;;;22.90;94.90;100485.53;4979505;28;22213;-66
2023/08/14 05:26:03;;;;;;;2.40;2.20;;;22.40;99.90;;;23.06;94.02;100483.41;4981243;28;20666;-67
2023/08/14 05:28:30;;;;;;;2.10;2.00;;;22.50;99.90;;;23.25;93.07;100476.56;4982058;28;20682;-63
2023/08/14 05:30:57;;;;;;;1.90;1.80;;;22.70;99.90;;;23.51;92.07;100482.06;4987607;28;20722;-64
2023/08/14 05:33:24;;;;;;;2.40;2.23;;;22.90;99.90;;;23.63;90.04;100480.50;4979822;28;20721;-67
2023/08/14 05:35:51;;;;;;;2.23;2.10;;;23.10;99.90;;;23.80;88.50;100492.47;4974328;28;20700;-64
2023/08/14 05:38:18;;;;;;;1.80;1.73;;;23.20;99.90;;;24.08;87.45;100499.53;4978326;28;20717;-66
2023/08/14 05:40:45;;;;;;;2.30;2.10;;;23.50;99.90;;;24.39;84.98;100495.31;4982686;28;20741;-66
2023/08/14 05:43:13;;;;;;;2.13;1.70;;;23.80;99.90;;;24.80;82.20;100494.34;4981431;28;20687;-65
2023/08/14 05:45:45;;;;;;;3.23;2.27;;;24.20;99.90;;;25.11;79.47;100494.50;4988228;28;23216;-65
2023/08/14 05:48:14;;;;;;;3.00;2.20;;;24.50;99.90;;;25.49;78.27;100484.00;4989601;28;20689;-65
2023/08/14 05:50:41;;;;;;;3.50;2.20;;;24.90;99.90;;;25.97;77.32;100483.38;4983190;28;20731;-65
2023/08/14 05:53:09;;;;;;;2.53;2.33;;;25.30;99.90;;;26.33;73.89;100476.63;4992659;28;20716;-65
2023/08/14 05:55:38;;;;;;;2.17;2.07;;;25.70;99.90;;;26.45;72.94;100482.94;4991519;28;20638;-65
2023/08/14 05:58:06;;;;;;;2.43;2.33;;;25.80;99.90;;;26.52;72.68;100483.69;4989029;28;20716;-65
2023/08/14 06:00:34;;;;;;;3.37;3.03;;;25.90;99.90;;;26.53;71.79;100485.34;4992133;28;21022;-68
2023/08/14 06:03:02;;;;;;;2.10;2.00;;;25.90;99.90;;;26.46;71.35;100504.09;4991022;28;20749;-68
2023/08/14 06:05:29;;;;;;;2.43;2.07;;;25.90;99.90;;;26.24;71.18;100505.47;4988914;28;20707;-68
2023/08/14 06:07:57;;;;;;;2.60;2.10;;;25.80;99.90;;;25.94;72.60;100509.72;4992390;28;20677;-67
2023/08/14 06:10:24;;;;;;;1.80;1.70;;;25.50;99.90;;;25.69;73.23;100498.94;4990768;28;20630;-68
2023/08/14 06:12:51;;;;;;;1.67;1.57;;;25.20;99.90;;;25.57;74.12;100484.59;4990777;28;20642;-67
2023/08/14 06:15:19;;;;;;;4.17;2.27;;;25.10;99.90;;;25.48;75.13;100467.16;4990532;28;20630;-67
2023/08/14 06:17:48;;;;;;;2.27;2.10;;;25.00;99.90;;;25.40;75.45;100470.84;4992042;28;21219;-68
2023/08/14 06:20:15;;;;;;;2.43;2.23;;;24.90;99.90;;;25.39;75.36;100471.88;4991844;28;21014;-66
2023/08/14 06:22:46;;;;;;;2.77;2.40;;;24.90;99.90;;;25.59;74.97;100479.84;4978211;28;20647;-66
2023/08/14 06:25:15;;;;;;;1.50;1.40;;;25.10;99.90;;;25.72;74.43;100477.16;4989456;28;20712;-67
2023/08/14 06:27:42;;;;;;;2.50;2.30;;;25.20;99.90;;;25.85;73.27;100478.94;4990365;28;20678;-68
2023/08/14 06:30:10;;;;;;;2.60;2.40;;;25.30;99.90;;;26.00;73.12;100484.81;4992666;28;20680;-69
2023/08/14 06:32:38;;;;;;;2.90;2.70;;;25.50;99.90;;;26.18;72.87;100474.25;4990139;28;20642;-69
2023/08/14 06:35:06;;;;;;;3.13;2.67;;;25.70;99.90;;;26.42;71.24;100464.63;4991402;28;20676;-69
2023/08/14 06:37:34;;;;;;;2.47;2.20;;;25.90;99.90;;;26.64;70.31;100463.22;4988975;28;20634;-67
2023/08/14 06:40:03;;;;;;;3.57;3.00;;;26.10;99.90;;;26.75;69.56;100457.16;4991522;28;20657;-67
2023/08/14 06:42:30;;;;;;;3.30;2.60;;;26.20;99.90;;;27.60;68.19;100459.81;4991594;28;20638;-67
2023/08/14 06:44:58;;;;;;;3.13;2.77;;;26.90;99.90;;;28.53;63.68;100464.72;4988647;28;21199;-67
2023/08/14 06:47:25;;;;;;;3.70;3.17;;;27.80;99.90;;;28.69;62.14;100470.25;4988799;28;20674;-68
2023/08/14 06:49:52;;;;;;;8.27;3.30;;;28.10;99.90;;;29.44;60.35;100481.94;4984261;28;20705;-67
2023/08/14 06:52:19;;;;;;;3.30;3.00;;;28.70;99.90;;;30.54;57.58;100475.19;4989836;28;20644;-69
2023/08/14 06:54:46;;;;;;;4.90;3.20;;;29.60;99.90;;;31.83;54.11;100479.22;4990724;28;20622;-68
2023/08/14 06:57:13;;;;;;;4.37;3.00;;;;;;;32.93;50.81;100478.66;4989425;28;20667;-69
2023/08/14 06:59:40;;;;;;;5.63;3.57;;;31.90;99.90;;;33.67;49.04;100475.84;4992021;28;20657;-69
2023/08/14 07:02:08;;;;;;;4.73;2.60;;;32.70;99.90;;;34.39;46.82;100482.00;4980989;28;21267;-69
2023/08/14 07:04:35;;;;;;;2.43;2.33;;;33.50;99.90;;;34.47;46.08;100481.44;4991031;28;20668;-69
2023/08/14 07:07:02;;;;;;;2.50;2.40;;;33.80;99.90;;;34.53;46.02;100488.50;4985902;28;20643;-69
2023/08/14 07:09:29;;;;;;;2.67;2.20;;;33.90;99.30;;;34.81;45.29;100471.69;4991898;28;20646;-67
2023/08/14 07:11:56;;;;;;;2.33;2.23;;;34.20;98.50;;;35.00;44.91;100480.09;4989791;28;20645;-68
2023/08/14 07:14:23;;;;;;;2.30;2.20;;;34.40;97.70;;;34.42;45.64;100480.59;4991130;28;20669;-70
2023/08/14 07:16:50;;;;;;;4.40;2.90;;;34.10;97.10;;;33.67;46.95;100494.78;4987213;28;20733;-68
2023/08/14 07:19:17;;;;;;;2.90;2.70;;;33.40;97.70;;;33.53;48.24;100494.44;4991288;28;20724;-68
2023/08/14 07:21:45;;;;;;;2.23;2.10;;;33.10;98.30;;;33.95;47.14;100492.44;4986081;28;21191;-68
2023/08/14 07:24:12;;;;;;;3.07;2.90;;;33.40;98.10;;;34.68;46.13;100484.97;4984466;28;20737;-67
2023/08/14 07:26:40;;;;;;;2.83;2.30;;;34.10;97.60;;;35.48;44.49;100484.06;4986266;28;20762;-69
2023/08/14 07:29:08;;;;;;;3.10;2.60;;;34.80;96.50;;;36.23;42.83;100480.94;4989143;28;20677;-69
2023/08/14 07:31:35;;;;;;;3.40;2.27;;;35.60;95.40;;;36.52;41.86;100487.25;4988199;28;20634;-70
2023/08/14 07:34:02;;;;;;;2.90;2.70;;;36.00;94.10;;;35.90;42.24;100489.81;4991335;28;21192;-68
2023/08/14 07:36:29;;;;;;;3.30;3.03;;;35.70;93.00;;;35.42;43.90;100482.41;4987162;28;21060;-69
2023/08/14 07:38:56;;;;;;;4.23;3.83;;;35.10;93.80;;;35.89;43.06;100485.47;4989220;28;20670;-69
2023/08/14 07:41:22;;;;;;;2.83;2.57;;;35.40;93.60;;;36.59;41.59;100514.94;4988431;28;20648;-68
2023/08/14 07:43:49;;;;;;;2.83;2.73;;;36.10;92.70;;;37.07;41.47;100512.34;4988481;28;20638;-69
2023/08/14 07:46:17;;;;;;;2.70;2.50;;;36.70;92.10;;;37.74;40.35;100508.59;4984236;28;20733;-65
2023/08/14 07:48:45;;;;;;;3.37;2.63;;;37.20;91.40;;;38.49;39.28;100509.44;4990571;28;20797;-68
2023/08/14 07:51:12;;;;;;;3.13;2.80;;;38.00;90.50;;;38.96;37.72;100511.09;4985719;28;20642;-67
2023/08/14 07:53:39;;;;;;;3.50;3.30;;;38.60;87.60;;;38.66;38.49;100505.06;4987969;28;20738;-67
2023/08/14 07:56:06;;;;;;;2.50;2.40;;;38.50;85.80;;;38.49;38.11;100504.81;4983651;28;20732;-70
2023/08/14 07:58:33;;;;;;;3.30;2.80;;;38.30;85.20;;;38.65;37.92;100494.47;4985740;28;20808;-66
2023/08/14 08:01:00;;;;;;;2.83;2.70;;;38.40;83.60;;;39.06;37.64;100497.28;4989251;28;21056;-69
2023/08/14 08:03:26;;;;;;;2.20;2.10;;;38.80;83.20;;;39.61;36.54;100498.97;4996148;28;20701;-66
2023/08/14 08:05:53;;;;;;;3.77;3.23;;;39.40;81.40;;;38.73;37.58;100501.97;4986190;28;20641;-68
2023/08/14 08:08:20;;;;;;;2.83;2.50;;;38.80;80.10;;;37.81;39.03;100507.16;4987603;28;20680;-67
2023/08/14 08:10:47;;;;;;;3.10;2.90;;;37.80;81.80;;;36.87;40.93;100507.88;4988042;28;20630;-71
2023/08/14 08:13:14;;;;;;;3.13;2.70;;;36.80;83.70;;;36.61;42.15;100505.69;4979956;28;20729;-66
2023/08/14 08:15:41;;;;;;;2.83;2.63;;;36.50;84.60;;;36.00;42.35;100505.25;4988221;28;20631;-66
2023/08/14 08:18:08;;;;;;;3.23;3.03;;;35.90;85.60;;;35.17;44.53;100513.16;4987482;28;20654;-66
2023/08/14 08:20:36;;;;;;;2.77;2.60;;;35.00;87.80;;;34.24;46.17;100520.72;4990840;28;20630;-65
2023/08/14 08:23:03;;;;;;;2.70;2.50;;;34.10;90.40;;;33.37;49.07;100511.66;4987670;28;20646;-66
2023/08/14 08:25:30;;;;;;;2.63;2.53;;;33.20;91.50;;;32.49;50.61;100502.38;4985107;28;20670;-71
2023/08/14 08:27:58;;;;;;;5.93;2.50;;;32.30;92.60;;;31.86;52.56;100499.50;4992612;28;20669;-66
2023/08/14 08:30:25;;;;;;;3.50;2.67;;;31.60;94.10;;;31.30;54.50;100504.16;4984598;28;21007;-67
2023/08/14 08:32:52;;;;;;;2.73;2.50;;;31.00;95.60;;;30.92;56.03;100508.72;4984866;28;21052;-66
2023/08/14 08:35:19;;;;;;;3.40;3.10;;;30.60;97.10;;;30.59;56.93;100499.53;4990771;28;20737;-68
2023/08/14 08:37:48;;;;;;;3.83;3.50;;;30.20;98.10;;;30.36;57.97;100504.22;4987667;28;21019;-66
2023/08/14 08:40:15;;;;;;;2.77;2.63;;;29.90;99.40;;;30.18;59.49;100518.69;4990323;28;20657;-67
2023/08/14 08:42:42;;;;;;;2.80;2.63;;;29.70;99.90;;;30.05;59.69;100510.09;4989423;28;20630;-69
2023/08/14 08:45:11;;;;;;;3.47;2.90;;;29.50;99.90;;;29.81;59.97;100495.91;4988286;28;21311;-67
2023/08/14 08:47:40;;;;;;;5.17;3.03;;;29.30;99.90;;;29.63;60.66;100493.34;4988268;28;21475;-68
2023/08/14 08:50:09;;;;;;;2.63;2.43;;;29.10;99.90;;;29.50;61.32;100490.91;4999889;28;20650;-65
2023/08/14 08:52:36;;;;;;;3.20;2.90;;;29.00;99.90;;;29.42;61.46;100493.97;4990090;28;20721;-66
2023/08/14 08:55:11;;;;;;;6.03;2.67;;;28.90;99.90;;;29.47;61.93;100508.34;4982883;28;20682;-63
2023/08/14 08:57:42;;;;;;;3.70;3.13;;;28.90;99.90;;;29.63;62.08;100494.16;4985269;28;20633;-66
2023/08/14 09:00:11;;;;;;;3.23;2.87;;;29.00;99.90;;;30.26;60.73;100504.81;4982099;28;20630;-66
2023/08/14 09:02:38;;;;;;;2.97;2.77;;;29.40;99.90;;;31.75;56.78;100498.56;4983359;28;21503;-68
2023/08/14 09:05:13;;;;;;;3.50;3.20;;;30.70;99.90;;;32.80;53.38;100498.81;4987964;28;20672;-67
2023/08/14 09:07:41;;;;;;;4.50;2.97;;;31.90;99.90;;;33.12;51.75;100501.50;4989762;28;21243;-70
2023/08/14 09:10:08;;;;;;;3.07;2.73;;;32.30;99.90;;;33.10;51.40;100500.94;4993238;28;20709;-67
2023/08/14 09:12:35;;;;;;;3.40;2.80;;;32.40;99.90;;;33.08;52.34;100505.00;5004427;28;21108;-67
2023/08/14 09:15:07;;;;;;;3.00;2.80;;;32.30;99.90;;;33.24;51.57;100502.13;4985466;28;20674;-67
2023/08/14 09:17:34;;;;;;;3.53;2.50;;;32.40;99.90;;;33.35;51.80;100498.38;4983311;28;21062;-65
2023/08/14 09:20:03;;;;;;;3.93;2.67;;;32.60;99.90;;;33.37;51.82;100496.22;5006431;28;20649;-66
2023/08/14 09:22:41;;;;;;;3.20;2.13;;;32.60;99.90;;;33.26;51.80;100491.88;4986467;28;20645;-66
2023/08/14 09:25:08;;;;;;;3.30;2.57;;;32.50;99.90;;;33.14;52.19;100504.75;4983111;28;20689;-67
2023/08/14 09:27:35;;;;;;;3.10;2.90;;;32.50;99.90;;;32.93;52.37;100497.56;4992221;28;20721;-68
2023/08/14 09:30:06;;;;;;;3.03;2.77;;;32.30;99.90;;;32.72;52.33;100493.91;4988385;28;20703;-66
2023/08/14 09:32:33;;;;;;;2.80;2.60;;;32.10;99.80;;;32.62;53.22;100496.53;4981950;28;21294;-67
2023/08/14 09:35:02;;;;;;;2.70;2.50;;;32.00;99.90;;;32.41;53.36;100496.59;4991184;28;21132;-65
2023/08/14 09:37:29;;;;;;;2.50;2.30;;;31.80;99.90;;;32.23;54.58;100486.97;4989607;28;21281;-67
2023/08/14 09:40:15;;;;;;;2.80;2.60;;;31.60;99.90;;;32.15;54.34;100487.44;4991191;28;20747;-67
2023/08/14 09:42:47;;;;;;;2.70;2.50;;;31.50;99.90;;;32.01;54.82;100478.09;4993923;28;20999;-67
2023/08/14 09:45:19;;;;;;;3.67;3.03;;;31.40;99.90;;;31.97;54.66;100480.50;4989166;28;20641;-67
2023/08/14 09:47:46;;;;;;;3.23;3.00;;;31.40;99.90;;;31.99;54.77;100485.63;4984754;28;21340;-64
2023/08/14 09:50:19;;;;;;;2.70;2.60;;;31.40;99.90;;;31.97;55.12;100485.88;4991331;28;21154;-67
2023/08/14 09:52:47;;;;;;;2.30;2.20;;;31.40;99.90;;;31.93;55.06;100487.44;4990063;28;20634;-67
2023/08/14 09:55:14;;;;;;;2.27;2.17;;;31.30;99.90;;;31.78;55.31;100492.66;4992356;28;21048;-67
2023/08/14 09:57:42;;;;;;;4.60;2.53;;;31.20;99.90;;;31.67;55.91;100498.19;4991230;28;21234;-70
2023/08/14 10:00:12;;;;;;;2.43;2.23;;;31.10;99.90;;;31.57;55.68;100495.34;4983878;28;20689;-66
2023/08/14 10:02:43;;;;;;;2.70;2.60;;;31.00;99.90;;;31.48;56.08;100500.38;4987402;28;20642;-69
2023/08/14 10:05:10;;;;;;;2.60;2.40;;;30.90;99.90;;;31.39;56.02;100491.88;4987453;28;20634;-67
2023/08/14 10:07:39;;;;;;;1.83;1.73;;;30.80;99.90;;;31.29;55.84;100491.75;4988997;28;20630;-67
2023/08/14 10:10:11;;;;;;;2.33;2.13;;;30.70;99.90;;;31.17;56.40;100487.53;4989310;28;20705;-66
2023/08/14 10:12:50;;;;;;;4.67;2.50;;;30.60;99.90;;;31.16;56.85;100477.78;4987681;28;20634;-69
2023/08/14 10:15:26;;;;;;;2.13;2.03;;;30.50;99.90;;;31.38;56.51;100479.47;4986762;28;20658;-66
2023/08/14 10:18:04;;;;;;;2.30;2.20;;;30.70;99.90;;;31.63;56.43;100487.06;4984517;28;20637;-67